sensor_id;sensor_type;location;lat;lon;timestamp;P1;durP1;ratioP1;P2;durP2;ratioP2
5245;SDS011;54412;51.206;6.888;2022-10-14T00:01:39;18.73;;;11.23;;
5245;SDS011;54412;51.206;6.888;2022-10-14T00:04:06;15.83;;;10.60;;
5245;SDS011;54412;51.206;6.888;2022-10-14T00:06:32;21.80;;;13.10;;
5245;SDS011;54412;51.206;6.888;2022-10-14T00:08:59;23.50;;;13.00;;
5245;SDS011;54412;51.206;6.888;2022-10-14T00:11:31;16.40;;;12.50;;
5245;SDS011;54412;51.206;6.888;2022-10-14T00:14:01;15.90;;;12.47;;
5245;SDS011;54412;51.206;6.888;2022-10-14T00:16:33;22.20;;;14.60;;
5245;SDS011;54412;51.206;6.888;2022-10-14T00:19:02;16.50;;;14.63;;
5245;SDS011;54412;51.206;6.888;2022-10-14T00:21:29;19.27;;;15.17;;
5245;SDS011;54412;51.206;6.888;2022-10-14T00:23:57;26.10;;;14.70;;
5245;SDS011;54412;51.206;6.888;2022-10-14T00:26:24;20.70;;;16.40;;
5245;SDS011;54412;51.206;6.888;2022-10-14T00:29:02;21.10;;;17.27;;
5245;SDS011;54412;51.206;6.888;2022-10-14T00:31:31;23.83;;;16.67;;
5245;SDS011;54412;51.206;6.888;2022-10-14T00:33:58;17.90;;;16.00;;
5245;SDS011;54412;51.206;6.888;2022-10-14T00:36:23;22.10;;;16.30;;
5245;SDS011;54412;51.206;6.888;2022-10-14T00:38:50;24.40;;;17.47;;
5245;SDS011;54412;51.206;6.888;2022-10-14T00:41:21;20.33;;;15.60;;
5245;SDS011;54412;51.206;6.888;2022-10-14T00:46:21;19.37;;;16.73;;
5245;SDS011;54412;51.206;6.888;2022-10-14T00:48:49;26.33;;;17.30;;
5245;SDS011;54412;51.206;6.888;2022-10-14T00:51:16;32.67;;;19.30;;
5245;SDS011;54412;51.206;6.888;2022-10-14T00:53:43;26.03;;;19.33;;
5245;SDS011;54412;51.206;6.888;2022-10-14T00:56:10;23.83;;;18.60;;
5245;SDS011;54412;51.206;6.888;2022-10-14T00:58:42;27.80;;;18.33;;
5245;SDS011;54412;51.206;6.888;2022-10-14T01:01:09;21.00;;;16.47;;
5245;SDS011;54412;51.206;6.888;2022-10-14T01:03:35;26.47;;;19.10;;
5245;SDS011;54412;51.206;6.888;2022-10-14T01:08:54;31.53;;;18.97;;
5245;SDS011;54412;51.206;6.888;2022-10-14T01:17:28;25.27;;;19.50;;
5245;SDS011;54412;51.206;6.888;2022-10-14T01:20:21;27.10;;;21.27;;
5245;SDS011;54412;51.206;6.888;2022-10-14T01:32:29;26.23;;;21.53;;
5245;SDS011;54412;51.206;6.888;2022-10-14T01:35:46;28.80;;;20.87;;
5245;SDS011;54412;51.206;6.888;2022-10-14T01:38:43;24.10;;;20.30;;
5245;SDS011;54412;51.206;6.888;2022-10-14T01:41:46;24.33;;;19.00;;
5245;SDS011;54412;51.206;6.888;2022-10-14T01:44:22;21.50;;;19.20;;
5245;SDS011;54412;51.206;6.888;2022-10-14T01:46:52;23.10;;;19.57;;
5245;SDS011;54412;51.206;6.888;2022-10-14T01:49:33;27.57;;;21.80;;
5245;SDS011;54412;51.206;6.888;2022-10-14T01:52:15;25.37;;;20.93;;
5245;SDS011;54412;51.206;6.888;2022-10-14T01:54:47;28.67;;;20.20;;
5245;SDS011;54412;51.206;6.888;2022-10-14T01:57:19;27.23;;;20.83;;
5245;SDS011;54412;51.206;6.888;2022-10-14T01:59:51;27.17;;;21.60;;
5245;SDS011;54412;51.206;6.888;2022-10-14T02:02:19;26.63;;;20.23;;
5245;SDS011;54412;51.206;6.888;2022-10-14T02:04:45;27.83;;;21.40;;
5245;SDS011;54412;51.206;6.888;2022-10-14T02:10:12;25.13;;;20.50;;
5245;SDS011;54412;51.206;6.888;2022-10-14T02:13:06;27.73;;;21.70;;
5245;SDS011;54412;51.206;6.888;2022-10-14T02:16:01;23.00;;;20.50;;
5245;SDS011;54412;51.206;6.888;2022-10-14T02:19:00;30.20;;;21.23;;
5245;SDS011;54412;51.206;6.888;2022-10-14T02:24:39;27.83;;;21.27;;
5245;SDS011;54412;51.206;6.888;2022-10-14T02:27:12;26.93;;;20.43;;
5245;SDS011;54412;51.206;6.888;2022-10-14T02:29:42;27.83;;;21.50;;
5245;SDS011;54412;51.206;6.888;2022-10-14T02:32:11;26.23;;;20.73;;
5245;SDS011;54412;51.206;6.888;2022-10-14T02:34:41;27.03;;;22.53;;
5245;SDS011;54412;51.206;6.888;2022-10-14T02:37:14;27.57;;;21.63;;
5245;SDS011;54412;51.206;6.888;2022-10-14T02:39:43;25.20;;;21.53;;
5245;SDS011;54412;51.206;6.888;2022-10-14T02:42:24;26.97;;;20.17;;
5245;SDS011;54412;51.206;6.888;2022-10-14T02:44:56;28.53;;;20.77;;
5245;SDS011;54412;51.206;6.888;2022-10-14T02:47:25;25.97;;;20.67;;
5245;SDS011;54412;51.206;6.888;2022-10-14T02:49:52;24.73;;;19.23;;
5245;SDS011;54412;51.206;6.888;2022-10-14T02:52:18;28.57;;;19.97;;
5245;SDS011;54412;51.206;6.888;2022-10-14T02:54:44;24.57;;;19.53;;
5245;SDS011;54412;51.206;6.888;2022-10-14T02:57:09;24.00;;;20.00;;
5245;SDS011;54412;51.206;6.888;2022-10-14T02:59:35;20.60;;;17.30;;
5245;SDS011;54412;51.206;6.888;2022-10-14T03:02:01;31.80;;;19.33;;
5245;SDS011;54412;51.206;6.888;2022-10-14T03:04:27;22.97;;;19.10;;
5245;SDS011;54412;51.206;6.888;2022-10-14T03:06:53;25.73;;;19.93;;
5245;SDS011;54412;51.206;6.888;2022-10-14T03:09:19;23.33;;;17.80;;
5245;SDS011;54412;51.206;6.888;2022-10-14T03:11:45;32.23;;;18.90;;
5245;SDS011;54412;51.206;6.888;2022-10-14T03:14:10;22.60;;;17.50;;
5245;SDS011;54412;51.206;6.888;2022-10-14T03:16:36;22.40;;;16.03;;
5245;SDS011;54412;51.206;6.888;2022-10-14T03:19:02;24.60;;;17.60;;
5245;SDS011;54412;51.206;6.888;2022-10-14T03:21:27;20.93;;;17.00;;
5245;SDS011;54412;51.206;6.888;2022-10-14T03:23:53;21.17;;;15.80;;
5245;SDS011;54412;51.206;6.888;2022-10-14T03:26:19;21.93;;;16.10;;
5245;SDS011;54412;51.206;6.888;2022-10-14T03:28:44;22.00;;;17.30;;
5245;SDS011;54412;51.206;6.888;2022-10-14T03:31:10;18.80;;;14.73;;
5245;SDS011;54412;51.206;6.888;2022-10-14T03:33:35;21.43;;;15.60;;
5245;SDS011;54412;51.206;6.888;2022-10-14T03:36:01;19.00;;;14.17;;
5245;SDS011;54412;51.206;6.888;2022-10-14T03:38:28;20.73;;;15.40;;
5245;SDS011;54412;51.206;6.888;2022-10-14T03:40:53;16.83;;;13.47;;
5245;SDS011;54412;51.206;6.888;2022-10-14T03:43:19;21.10;;;12.97;;
5245;SDS011;54412;51.206;6.888;2022-10-14T03:45:45;16.80;;;12.90;;
5245;SDS011;54412;51.206;6.888;2022-10-14T03:48:11;18.50;;;13.60;;
5245;SDS011;54412;51.206;6.888;2022-10-14T03:50:36;19.20;;;13.50;;
5245;SDS011;54412;51.206;6.888;2022-10-14T03:53:02;15.60;;;11.60;;
5245;SDS011;54412;51.206;6.888;2022-10-14T03:55:28;17.60;;;13.33;;
5245;SDS011;54412;51.206;6.888;2022-10-14T03:57:54;17.30;;;13.40;;
5245;SDS011;54412;51.206;6.888;2022-10-14T04:00:20;13.77;;;12.10;;
5245;SDS011;54412;51.206;6.888;2022-10-14T04:02:46;19.03;;;13.97;;
5245;SDS011;54412;51.206;6.888;2022-10-14T04:05:12;21.17;;;14.43;;
5245;SDS011;54412;51.206;6.888;2022-10-14T04:07:38;19.17;;;12.77;;
5245;SDS011;54412;51.206;6.888;2022-10-14T04:10:04;16.77;;;13.67;;
5245;SDS011;54412;51.206;6.888;2022-10-14T04:12:31;15.93;;;13.30;;
5245;SDS011;54412;51.206;6.888;2022-10-14T04:14:56;15.17;;;13.50;;
5245;SDS011;54412;51.206;6.888;2022-10-14T04:17:23;17.47;;;13.53;;
5245;SDS011;54412;51.206;6.888;2022-10-14T04:19:49;15.60;;;12.90;;
5245;SDS011;54412;51.206;6.888;2022-10-14T04:22:16;18.90;;;13.00;;
5245;SDS011;54412;51.206;6.888;2022-10-14T04:24:42;16.53;;;13.13;;
5245;SDS011;54412;51.206;6.888;2022-10-14T04:27:08;15.60;;;12.70;;
5245;SDS011;54412;51.206;6.888;2022-10-14T04:29:34;14.40;;;12.47;;
5245;SDS011;54412;51.206;6.888;2022-10-14T04:32:00;14.10;;;12.43;;
5245;SDS011;54412;51.206;6.888;2022-10-14T04:34:25;12.20;;;10.93;;
5245;SDS011;54412;51.206;6.888;2022-10-14T04:36:51;13.63;;;12.23;;
5245;SDS011;54412;51.206;6.888;2022-10-14T04:39:18;15.80;;;12.00;;
5245;SDS011;54412;51.206;6.888;2022-10-14T04:41:44;16.03;;;12.60;;
5245;SDS011;54412;51.206;6.888;2022-10-14T04:44:09;15.80;;;11.53;;
5245;SDS011;54412;51.206;6.888;2022-10-14T04:46:38;15.07;;;11.80;;
5245;SDS011;54412;51.206;6.888;2022-10-14T04:49:04;19.70;;;12.50;;
5245;SDS011;54412;51.206;6.888;2022-10-14T04:51:29;13.23;;;11.80;;
5245;SDS011;54412;51.206;6.888;2022-10-14T04:53:55;16.00;;;12.27;;
5245;SDS011;54412;51.206;6.888;2022-10-14T04:56:21;13.77;;;12.13;;
5245;SDS011;54412;51.206;6.888;2022-10-14T04:58:47;12.20;;;10.73;;
5245;SDS011;54412;51.206;6.888;2022-10-14T05:01:13;14.40;;;10.77;;
5245;SDS011;54412;51.206;6.888;2022-10-14T05:03:38;13.50;;;11.70;;
5245;SDS011;54412;51.206;6.888;2022-10-14T05:06:04;12.97;;;11.67;;
5245;SDS011;54412;51.206;6.888;2022-10-14T05:08:30;14.63;;;11.90;;
5245;SDS011;54412;51.206;6.888;2022-10-14T05:10:55;11.60;;;10.33;;
5245;SDS011;54412;51.206;6.888;2022-10-14T05:13:21;13.57;;;10.50;;
5245;SDS011;54412;51.206;6.888;2022-10-14T05:15:47;12.00;;;10.80;;
5245;SDS011;54412;51.206;6.888;2022-10-14T05:18:12;13.93;;;11.30;;
5245;SDS011;54412;51.206;6.888;2022-10-14T05:20:39;11.27;;;10.17;;
5245;SDS011;54412;51.206;6.888;2022-10-14T05:23:05;13.00;;;10.63;;
5245;SDS011;54412;51.206;6.888;2022-10-14T05:25:30;13.20;;;10.40;;
5245;SDS011;54412;51.206;6.888;2022-10-14T05:27:56;12.17;;;10.70;;
5245;SDS011;54412;51.206;6.888;2022-10-14T05:30:22;12.23;;;10.93;;
5245;SDS011;54412;51.206;6.888;2022-10-14T05:32:47;14.93;;;10.63;;
5245;SDS011;54412;51.206;6.888;2022-10-14T05:35:13;18.63;;;11.57;;
5245;SDS011;54412;51.206;6.888;2022-10-14T05:37:39;17.10;;;11.37;;
5245;SDS011;54412;51.206;6.888;2022-10-14T05:40:05;17.07;;;11.43;;
5245;SDS011;54412;51.206;6.888;2022-10-14T05:42:32;15.03;;;10.83;;
5245;SDS011;54412;51.206;6.888;2022-10-14T05:44:57;13.43;;;10.27;;
5245;SDS011;54412;51.206;6.888;2022-10-14T05:47:23;10.80;;;9.67;;
5245;SDS011;54412;51.206;6.888;2022-10-14T05:49:49;12.40;;;10.27;;
5245;SDS011;54412;51.206;6.888;2022-10-14T05:52:14;16.57;;;9.87;;
5245;SDS011;54412;51.206;6.888;2022-10-14T05:54:40;17.07;;;10.20;;
5245;SDS011;54412;51.206;6.888;2022-10-14T05:57:06;10.43;;;9.40;;
5245;SDS011;54412;51.206;6.888;2022-10-14T05:59:31;12.23;;;8.77;;
5245;SDS011;54412;51.206;6.888;2022-10-14T06:01:58;14.87;;;9.90;;
5245;SDS011;54412;51.206;6.888;2022-10-14T06:04:25;11.80;;;9.07;;
5245;SDS011;54412;51.206;6.888;2022-10-14T06:06:51;9.93;;;9.00;;
5245;SDS011;54412;51.206;6.888;2022-10-14T06:09:17;12.20;;;9.80;;
5245;SDS011;54412;51.206;6.888;2022-10-14T06:11:43;11.83;;;9.73;;
5245;SDS011;54412;51.206;6.888;2022-10-14T06:14:09;9.47;;;8.43;;
5245;SDS011;54412;51.206;6.888;2022-10-14T06:16:35;13.33;;;8.90;;
5245;SDS011;54412;51.206;6.888;2022-10-14T06:19:01;13.80;;;9.07;;
5245;SDS011;54412;51.206;6.888;2022-10-14T06:21:26;11.90;;;8.00;;
5245;SDS011;54412;51.206;6.888;2022-10-14T06:23:52;15.57;;;9.73;;
5245;SDS011;54412;51.206;6.888;2022-10-14T06:26:18;10.50;;;6.73;;
5245;SDS011;54412;51.206;6.888;2022-10-14T06:28:44;13.17;;;8.20;;
5245;SDS011;54412;51.206;6.888;2022-10-14T06:31:10;10.47;;;8.00;;
5245;SDS011;54412;51.206;6.888;2022-10-14T06:33:36;8.40;;;7.60;;
5245;SDS011;54412;51.206;6.888;2022-10-14T06:36:02;9.23;;;8.33;;
5245;SDS011;54412;51.206;6.888;2022-10-14T06:38:29;11.07;;;8.13;;
5245;SDS011;54412;51.206;6.888;2022-10-14T06:40:55;11.40;;;8.67;;
5245;SDS011;54412;51.206;6.888;2022-10-14T06:43:21;8.43;;;7.63;;
5245;SDS011;54412;51.206;6.888;2022-10-14T06:45:47;10.40;;;6.93;;
5245;SDS011;54412;51.206;6.888;2022-10-14T06:48:14;10.13;;;7.80;;
5245;SDS011;54412;51.206;6.888;2022-10-14T06:50:40;9.37;;;7.53;;
5245;SDS011;54412;51.206;6.888;2022-10-14T06:53:06;9.23;;;8.20;;
5245;SDS011;54412;51.206;6.888;2022-10-14T06:55:32;11.03;;;7.90;;
5245;SDS011;54412;51.206;6.888;2022-10-14T06:57:59;11.30;;;7.50;;
5245;SDS011;54412;51.206;6.888;2022-10-14T07:00:24;11.07;;;8.40;;
5245;SDS011;54412;51.206;6.888;2022-10-14T07:02:50;16.57;;;9.40;;
5245;SDS011;54412;51.206;6.888;2022-10-14T07:05:16;9.27;;;8.40;;
5245;SDS011;54412;51.206;6.888;2022-10-14T07:07:42;9.77;;;8.00;;
5245;SDS011;54412;51.206;6.888;2022-10-14T07:10:08;9.43;;;8.50;;
5245;SDS011;54412;51.206;6.888;2022-10-14T07:12:33;9.23;;;8.00;;
5245;SDS011;54412;51.206;6.888;2022-10-14T07:14:59;11.63;;;7.80;;
5245;SDS011;54412;51.206;6.888;2022-10-14T07:17:25;9.60;;;8.07;;
5245;SDS011;54412;51.206;6.888;2022-10-14T07:19:51;9.17;;;8.17;;
5245;SDS011;54412;51.206;6.888;2022-10-14T07:22:16;7.87;;;7.27;;
5245;SDS011;54412;51.206;6.888;2022-10-14T07:24:42;9.80;;;8.90;;
5245;SDS011;54412;51.206;6.888;2022-10-14T07:27:08;13.03;;;7.97;;
5245;SDS011;54412;51.206;6.888;2022-10-14T07:29:35;9.80;;;7.60;;
5245;SDS011;54412;51.206;6.888;2022-10-14T07:32:00;8.90;;;7.43;;
5245;SDS011;54412;51.206;6.888;2022-10-14T07:34:27;9.20;;;8.30;;
5245;SDS011;54412;51.206;6.888;2022-10-14T07:36:53;8.80;;;8.00;;
5245;SDS011;54412;51.206;6.888;2022-10-14T07:39:19;9.53;;;8.10;;
5245;SDS011;54412;51.206;6.888;2022-10-14T07:41:44;11.17;;;7.20;;
5245;SDS011;54412;51.206;6.888;2022-10-14T07:44:10;8.20;;;7.50;;
5245;SDS011;54412;51.206;6.888;2022-10-14T07:46:39;12.03;;;7.50;;
5245;SDS011;54412;51.206;6.888;2022-10-14T07:49:12;10.77;;;8.10;;
5245;SDS011;54412;51.206;6.888;2022-10-14T07:51:44;7.90;;;7.17;;
5245;SDS011;54412;51.206;6.888;2022-10-14T07:54:14;8.87;;;7.23;;
5245;SDS011;54412;51.206;6.888;2022-10-14T07:56:43;7.60;;;6.73;;
5245;SDS011;54412;51.206;6.888;2022-10-14T07:59:13;8.20;;;7.07;;
5245;SDS011;54412;51.206;6.888;2022-10-14T08:01:40;8.43;;;7.60;;
5245;SDS011;54412;51.206;6.888;2022-10-14T08:04:07;7.67;;;6.67;;
5245;SDS011;54412;51.206;6.888;2022-10-14T08:06:34;8.43;;;6.80;;
5245;SDS011;54412;51.206;6.888;2022-10-14T08:09:02;7.17;;;6.47;;
5245;SDS011;54412;51.206;6.888;2022-10-14T08:11:33;8.13;;;6.70;;
5245;SDS011;54412;51.206;6.888;2022-10-14T08:13:59;9.63;;;7.00;;
5245;SDS011;54412;51.206;6.888;2022-10-14T08:16:27;7.90;;;7.20;;
5245;SDS011;54412;51.206;6.888;2022-10-14T08:18:57;7.10;;;6.50;;
5245;SDS011;54412;51.206;6.888;2022-10-14T08:21:26;8.87;;;6.53;;
5245;SDS011;54412;51.206;6.888;2022-10-14T08:23:52;16.30;;;6.50;;
5245;SDS011;54412;51.206;6.888;2022-10-14T08:28:58;9.20;;;7.20;;
5245;SDS011;54412;51.206;6.888;2022-10-14T08:31:26;9.30;;;7.30;;
5245;SDS011;54412;51.206;6.888;2022-10-14T08:33:53;11.37;;;7.00;;
5245;SDS011;54412;51.206;6.888;2022-10-14T08:36:19;9.70;;;7.17;;
5245;SDS011;54412;51.206;6.888;2022-10-14T08:38:45;6.17;;;5.63;;
5245;SDS011;54412;51.206;6.888;2022-10-14T08:49:10;8.10;;;5.67;;
5245;SDS011;54412;51.206;6.888;2022-10-14T08:51:47;6.93;;;6.33;;
5245;SDS011;54412;51.206;6.888;2022-10-14T08:54:27;6.33;;;5.87;;
5245;SDS011;54412;51.206;6.888;2022-10-14T08:57:01;6.90;;;6.30;;
5245;SDS011;54412;51.206;6.888;2022-10-14T08:59:29;11.30;;;6.63;;
5245;SDS011;54412;51.206;6.888;2022-10-14T09:02:03;6.87;;;6.17;;
5245;SDS011;54412;51.206;6.888;2022-10-14T09:04:56;7.23;;;6.43;;
5245;SDS011;54412;51.206;6.888;2022-10-14T09:07:24;7.83;;;6.63;;
5245;SDS011;54412;51.206;6.888;2022-10-14T09:09:52;6.37;;;5.83;;
5245;SDS011;54412;51.206;6.888;2022-10-14T09:12:25;6.40;;;5.43;;
5245;SDS011;54412;51.206;6.888;2022-10-14T09:15:05;5.90;;;5.40;;
5245;SDS011;54412;51.206;6.888;2022-10-14T09:24:02;5.60;;;5.20;;
5245;SDS011;54412;51.206;6.888;2022-10-14T09:26:39;6.70;;;5.67;;
5245;SDS011;54412;51.206;6.888;2022-10-14T09:29:23;4.83;;;4.53;;
5245;SDS011;54412;51.206;6.888;2022-10-14T09:31:58;4.90;;;4.50;;
5245;SDS011;54412;51.206;6.888;2022-10-14T09:34:35;7.57;;;5.57;;
5245;SDS011;54412;51.206;6.888;2022-10-14T09:40:21;5.50;;;5.00;;
5245;SDS011;54412;51.206;6.888;2022-10-14T09:45:53;5.37;;;4.87;;
5245;SDS011;54412;51.206;6.888;2022-10-14T09:53:54;6.50;;;5.90;;
5245;SDS011;54412;51.206;6.888;2022-10-14T09:56:41;5.57;;;5.07;;
5245;SDS011;54412;51.206;6.888;2022-10-14T09:59:16;5.77;;;4.83;;
5245;SDS011;54412;51.206;6.888;2022-10-14T10:01:49;6.60;;;5.20;;
5245;SDS011;54412;51.206;6.888;2022-10-14T10:06:56;9.83;;;5.40;;
5245;SDS011;54412;51.206;6.888;2022-10-14T10:09:24;6.37;;;5.77;;
5245;SDS011;54412;51.206;6.888;2022-10-14T10:11:51;10.70;;;5.97;;
5245;SDS011;54412;51.206;6.888;2022-10-14T10:14:21;7.57;;;6.03;;
5245;SDS011;54412;51.206;6.888;2022-10-14T10:19:36;6.40;;;5.87;;
5245;SDS011;54412;51.206;6.888;2022-10-14T10:24:49;7.00;;;5.60;;
5245;SDS011;54412;51.206;6.888;2022-10-14T10:27:40;5.83;;;5.00;;
5245;SDS011;54412;51.206;6.888;2022-10-14T10:32:54;7.07;;;5.87;;
5245;SDS011;54412;51.206;6.888;2022-10-14T10:38:51;6.37;;;5.77;;
5245;SDS011;54412;51.206;6.888;2022-10-14T10:41:41;7.63;;;6.90;;
5245;SDS011;54412;51.206;6.888;2022-10-14T10:52:47;13.40;;;5.90;;
5245;SDS011;54412;51.206;6.888;2022-10-14T10:59:20;7.17;;;6.50;;
5245;SDS011;54412;51.206;6.888;2022-10-14T11:02:02;10.13;;;7.53;;
5245;SDS011;54412;51.206;6.888;2022-10-14T11:17:01;12.00;;;8.10;;
5245;SDS011;54412;51.206;6.888;2022-10-14T11:22:39;11.10;;;8.60;;
5245;SDS011;54412;51.206;6.888;2022-10-14T11:28:27;13.83;;;10.03;;
5245;SDS011;54412;51.206;6.888;2022-10-14T11:34:25;12.90;;;9.27;;
5245;SDS011;54412;51.206;6.888;2022-10-14T11:43:40;15.23;;;11.27;;
5245;SDS011;54412;51.206;6.888;2022-10-14T11:46:37;15.87;;;11.57;;
5245;SDS011;54412;51.206;6.888;2022-10-14T11:49:21;16.40;;;10.40;;
5245;SDS011;54412;51.206;6.888;2022-10-14T11:52:02;17.00;;;11.00;;
5245;SDS011;54412;51.206;6.888;2022-10-14T11:54:37;14.87;;;11.37;;
5245;SDS011;54412;51.206;6.888;2022-10-14T11:57:13;14.67;;;10.90;;
5245;SDS011;54412;51.206;6.888;2022-10-14T12:03:01;20.20;;;12.50;;
5245;SDS011;54412;51.206;6.888;2022-10-14T12:11:58;15.10;;;12.50;;
5245;SDS011;54412;51.206;6.888;2022-10-14T12:14:35;16.60;;;13.10;;
5245;SDS011;54412;51.206;6.888;2022-10-14T12:17:15;19.17;;;14.33;;
5245;SDS011;54412;51.206;6.888;2022-10-14T12:23:10;17.60;;;12.40;;
5245;SDS011;54412;51.206;6.888;2022-10-14T12:29:01;17.17;;;13.53;;
5245;SDS011;54412;51.206;6.888;2022-10-14T12:36:43;18.40;;;13.00;;
5245;SDS011;54412;51.206;6.888;2022-10-14T12:44:35;18.50;;;13.40;;
5245;SDS011;54412;51.206;6.888;2022-10-14T12:47:50;21.43;;;14.30;;
5245;SDS011;54412;51.206;6.888;2022-10-14T12:52:39;21.80;;;15.07;;
5245;SDS011;54412;51.206;6.888;2022-10-14T12:55:15;26.57;;;15.53;;
5245;SDS011;54412;51.206;6.888;2022-10-14T12:57:55;22.60;;;14.57;;
5245;SDS011;54412;51.206;6.888;2022-10-14T13:00:29;24.63;;;14.90;;
5245;SDS011;54412;51.206;6.888;2022-10-14T13:03:02;18.30;;;14.03;;
5245;SDS011;54412;51.206;6.888;2022-10-14T13:05:41;17.10;;;13.73;;
5245;SDS011;54412;51.206;6.888;2022-10-14T13:08:10;20.60;;;14.40;;
5245;SDS011;54412;51.206;6.888;2022-10-14T13:10:40;19.20;;;14.20;;
5245;SDS011;54412;51.206;6.888;2022-10-14T13:16:04;29.83;;;16.43;;
5245;SDS011;54412;51.206;6.888;2022-10-14T13:21:06;22.13;;;15.20;;
5245;SDS011;54412;51.206;6.888;2022-10-14T13:23:41;24.03;;;17.00;;
5245;SDS011;54412;51.206;6.888;2022-10-14T13:26:18;22.20;;;16.90;;
5245;SDS011;54412;51.206;6.888;2022-10-14T13:29:07;19.13;;;15.07;;
5245;SDS011;54412;51.206;6.888;2022-10-14T13:34:41;20.67;;;14.90;;
5245;SDS011;54412;51.206;6.888;2022-10-14T13:37:31;21.37;;;16.03;;
5245;SDS011;54412;51.206;6.888;2022-10-14T13:40:05;26.23;;;15.97;;
5245;SDS011;54412;51.206;6.888;2022-10-14T13:43:01;21.87;;;15.43;;
5245;SDS011;54412;51.206;6.888;2022-10-14T13:45:38;18.00;;;14.37;;
5245;SDS011;54412;51.206;6.888;2022-10-14T13:48:31;17.93;;;14.30;;
5245;SDS011;54412;51.206;6.888;2022-10-14T13:53:49;19.30;;;14.40;;
5245;SDS011;54412;51.206;6.888;2022-10-14T13:56:24;15.50;;;13.60;;
5245;SDS011;54412;51.206;6.888;2022-10-14T13:58:51;18.97;;;15.27;;
5245;SDS011;54412;51.206;6.888;2022-10-14T14:01:18;16.70;;;14.60;;
5245;SDS011;54412;51.206;6.888;2022-10-14T14:03:54;18.33;;;14.13;;
5245;SDS011;54412;51.206;6.888;2022-10-14T14:06:23;19.50;;;13.20;;
5245;SDS011;54412;51.206;6.888;2022-10-14T14:09:01;22.10;;;13.60;;
5245;SDS011;54412;51.206;6.888;2022-10-14T14:11:34;18.63;;;14.40;;
5245;SDS011;54412;51.206;6.888;2022-10-14T14:14:02;18.43;;;14.37;;
5245;SDS011;54412;51.206;6.888;2022-10-14T14:19:26;17.60;;;14.03;;
5245;SDS011;54412;51.206;6.888;2022-10-14T14:22:16;20.63;;;14.57;;
5245;SDS011;54412;51.206;6.888;2022-10-14T14:24:52;15.93;;;12.70;;
5245;SDS011;54412;51.206;6.888;2022-10-14T14:27:47;17.70;;;13.70;;
5245;SDS011;54412;51.206;6.888;2022-10-14T14:33:17;20.03;;;13.50;;
5245;SDS011;54412;51.206;6.888;2022-10-14T14:36:02;18.53;;;14.90;;
5245;SDS011;54412;51.206;6.888;2022-10-14T14:38:34;21.33;;;16.10;;
5245;SDS011;54412;51.206;6.888;2022-10-14T14:41:05;16.30;;;13.30;;
5245;SDS011;54412;51.206;6.888;2022-10-14T14:43:52;19.90;;;14.30;;
5245;SDS011;54412;51.206;6.888;2022-10-14T14:46:35;17.73;;;13.60;;
5245;SDS011;54412;51.206;6.888;2022-10-14T14:49:04;16.10;;;13.20;;
5245;SDS011;54412;51.206;6.888;2022-10-14T14:51:36;18.40;;;14.20;;
5245;SDS011;54412;51.206;6.888;2022-10-14T14:54:04;21.70;;;14.80;;
5245;SDS011;54412;51.206;6.888;2022-10-14T14:56:33;17.83;;;14.30;;
5245;SDS011;54412;51.206;6.888;2022-10-14T15:02:12;19.30;;;14.40;;
5245;SDS011;54412;51.206;6.888;2022-10-14T15:04:42;21.13;;;14.63;;
5245;SDS011;54412;51.206;6.888;2022-10-14T15:07:15;22.03;;;14.10;;
5245;SDS011;54412;51.206;6.888;2022-10-14T15:09:50;16.97;;;14.03;;
5245;SDS011;54412;51.206;6.888;2022-10-14T15:12:22;16.87;;;13.23;;
5245;SDS011;54412;51.206;6.888;2022-10-14T15:17:30;16.73;;;13.20;;
5245;SDS011;54412;51.206;6.888;2022-10-14T15:22:34;19.20;;;14.43;;
5245;SDS011;54412;51.206;6.888;2022-10-14T15:27:49;19.30;;;15.63;;
5245;SDS011;54412;51.206;6.888;2022-10-14T15:33:21;21.90;;;14.30;;
5245;SDS011;54412;51.206;6.888;2022-10-14T15:35:53;21.23;;;12.70;;
5245;SDS011;54412;51.206;6.888;2022-10-14T15:38:25;17.60;;;13.90;;
5245;SDS011;54412;51.206;6.888;2022-10-14T15:40:53;19.10;;;13.20;;
5245;SDS011;54412;51.206;6.888;2022-10-14T15:43:20;15.87;;;12.60;;
5245;SDS011;54412;51.206;6.888;2022-10-14T15:45:52;19.70;;;13.20;;
5245;SDS011;54412;51.206;6.888;2022-10-14T16:01:44;21.47;;;12.67;;
5245;SDS011;54412;51.206;6.888;2022-10-14T16:04:13;15.40;;;12.97;;
5245;SDS011;54412;51.206;6.888;2022-10-14T16:06:43;21.53;;;13.30;;
5245;SDS011;54412;51.206;6.888;2022-10-14T16:09:10;17.53;;;11.83;;
5245;SDS011;54412;51.206;6.888;2022-10-14T16:11:36;15.03;;;12.43;;
5245;SDS011;54412;51.206;6.888;2022-10-14T16:14:02;14.93;;;12.07;;
5245;SDS011;54412;51.206;6.888;2022-10-14T16:16:31;17.50;;;12.57;;
5245;SDS011;54412;51.206;6.888;2022-10-14T16:19:03;15.57;;;10.73;;
5245;SDS011;54412;51.206;6.888;2022-10-14T16:21:29;19.33;;;12.80;;
5245;SDS011;54412;51.206;6.888;2022-10-14T16:23:55;15.07;;;12.57;;
5245;SDS011;54412;51.206;6.888;2022-10-14T16:26:24;14.73;;;10.83;;
5245;SDS011;54412;51.206;6.888;2022-10-14T16:28:50;14.80;;;11.20;;
5245;SDS011;54412;51.206;6.888;2022-10-14T16:31:16;19.43;;;13.07;;
5245;SDS011;54412;51.206;6.888;2022-10-14T16:33:42;13.77;;;12.33;;
5245;SDS011;54412;51.206;6.888;2022-10-14T16:36:08;19.47;;;13.30;;
5245;SDS011;54412;51.206;6.888;2022-10-14T16:38:38;20.30;;;12.67;;
5245;SDS011;54412;51.206;6.888;2022-10-14T16:41:04;13.53;;;12.13;;
5245;SDS011;54412;51.206;6.888;2022-10-14T16:43:33;16.53;;;12.07;;
5245;SDS011;54412;51.206;6.888;2022-10-14T16:46:00;17.27;;;12.43;;
5245;SDS011;54412;51.206;6.888;2022-10-14T16:48:31;20.97;;;12.73;;
5245;SDS011;54412;51.206;6.888;2022-10-14T16:50:58;12.83;;;11.53;;
5245;SDS011;54412;51.206;6.888;2022-10-14T16:53:24;17.40;;;12.10;;
5245;SDS011;54412;51.206;6.888;2022-10-14T16:56:06;17.33;;;14.20;;
5245;SDS011;54412;51.206;6.888;2022-10-14T16:58:55;15.20;;;12.27;;
5245;SDS011;54412;51.206;6.888;2022-10-14T17:01:22;14.23;;;12.00;;
5245;SDS011;54412;51.206;6.888;2022-10-14T17:03:48;30.30;;;13.70;;
5245;SDS011;54412;51.206;6.888;2022-10-14T17:06:14;20.50;;;14.43;;
5245;SDS011;54412;51.206;6.888;2022-10-14T17:08:40;20.27;;;14.03;;
5245;SDS011;54412;51.206;6.888;2022-10-14T17:11:07;20.60;;;14.00;;
5245;SDS011;54412;51.206;6.888;2022-10-14T17:13:36;17.77;;;12.50;;
5245;SDS011;54412;51.206;6.888;2022-10-14T17:16:03;14.73;;;13.23;;
5245;SDS011;54412;51.206;6.888;2022-10-14T17:18:31;18.60;;;13.80;;
5245;SDS011;54412;51.206;6.888;2022-10-14T17:21:00;19.93;;;13.13;;
5245;SDS011;54412;51.206;6.888;2022-10-14T17:23:32;14.97;;;12.63;;
5245;SDS011;54412;51.206;6.888;2022-10-14T17:26:00;18.13;;;13.40;;
5245;SDS011;54412;51.206;6.888;2022-10-14T17:28:28;21.17;;;13.60;;
5245;SDS011;54412;51.206;6.888;2022-10-14T17:30:54;17.00;;;12.60;;
5245;SDS011;54412;51.206;6.888;2022-10-14T17:33:21;18.37;;;13.10;;
5245;SDS011;54412;51.206;6.888;2022-10-14T17:35:53;15.77;;;13.13;;
5245;SDS011;54412;51.206;6.888;2022-10-14T17:38:27;16.43;;;12.13;;
5245;SDS011;54412;51.206;6.888;2022-10-14T17:41:04;17.00;;;13.80;;
5245;SDS011;54412;51.206;6.888;2022-10-14T17:43:33;20.97;;;13.70;;
5245;SDS011;54412;51.206;6.888;2022-10-14T17:46:10;27.30;;;15.53;;
5245;SDS011;54412;51.206;6.888;2022-10-14T17:48:37;25.10;;;14.23;;
5245;SDS011;54412;51.206;6.888;2022-10-14T17:51:06;15.67;;;12.57;;
5245;SDS011;54412;51.206;6.888;2022-10-14T17:53:35;14.97;;;12.73;;
5245;SDS011;54412;51.206;6.888;2022-10-14T17:56:02;15.90;;;13.50;;
5245;SDS011;54412;51.206;6.888;2022-10-14T17:58:36;15.67;;;13.40;;
5245;SDS011;54412;51.206;6.888;2022-10-14T18:01:06;16.87;;;12.73;;
5245;SDS011;54412;51.206;6.888;2022-10-14T18:03:39;15.63;;;13.03;;
5245;SDS011;54412;51.206;6.888;2022-10-14T18:08:54;21.13;;;14.63;;